Terminal Aerodrome Forecast
Issued by NWS

Home | Current Version | Previous Version | Graphics & Text | Print | Product List | Glossary On
Versions: 1 2 3 4 5 6 7 8 9 10 11 12 13 14 15 16 17 18 19 20
000
FTUS42 KMHX 172054 AAA
TAFISO
TAF AMD
KISO 172054Z 1721/1818 16005KT P6SM VCTS BKN040CB
      TEMPO 1721/1723 4SM -TSRA OVC025CB
     FM180000 17006KT P6SM BKN100
     FM181600 20007KT P6SM VCTS BKN060CB
      AMD LTD TO CLD VIS AND WIND=

USA.gov is the U.S. government's official web portal to all federal, state and local government web resources and services.